Terminal Aerodrome Forecast
Issued by NWS Charleston, WV

Home | Current Version | Previous Version | Text Only | Print | Product List | Glossary On
Versions: 1 2 3 4 5 6 7 8 9 10 11 12 13 14 15 16 17 18 19 20 21 22
114
FTUS41 KRLX 260859 CCA
TAFHTS
TAF COR
KHTS 260859Z 2609/2706 00000KT 2SM BR SCT002
      TEMPO 2609/2612 1SM BR BKN002
     FM261200 VRB03KT P6SM FEW025
     FM261700 VRB05KT P6SM SCT040
     FM270100 00000KT P6SM SKC=

USA.gov is the U.S. government's official web portal to all federal, state and local government web resources and services.